sensor_id;sensor_type;location;lat;lon;timestamp;pressure;altitude;pressure_sealevel;temperature;humidity
67987;BME280;54767;53.800;15.956;2023-02-26T00:01:42;99633.25;;;-1.15;86.47
67987;BME280;54767;53.800;15.956;2023-02-26T00:04:10;99636.15;;;-1.15;86.81
67987;BME280;54767;53.800;15.956;2023-02-26T00:06:41;99642.14;;;-1.16;87.09
67987;BME280;54767;53.800;15.956;2023-02-26T00:09:49;99641.64;;;-1.15;87.42
67987;BME280;54767;53.800;15.956;2023-02-26T00:12:36;99652.53;;;-1.13;87.26
67987;BME280;54767;53.800;15.956;2023-02-26T00:15:28;99652.83;;;-1.10;87.38
67987;BME280;54767;53.800;15.956;2023-02-26T00:18:03;99656.05;;;-1.07;87.55
67987;BME280;54767;53.800;15.956;2023-02-26T00:20:36;99658.89;;;-1.09;87.42
67987;BME280;54767;53.800;15.956;2023-02-26T00:23:05;99662.17;;;-1.04;87.26
67987;BME280;54767;53.800;15.956;2023-02-26T00:25:34;99670.33;;;-1.02;87.23
67987;BME280;54767;53.800;15.956;2023-02-26T00:28:03;99665.91;;;-1.00;87.06
67987;BME280;54767;53.800;15.956;2023-02-26T00:30:52;99664.14;;;-0.97;86.80
67987;BME280;54767;53.800;15.956;2023-02-26T00:33:22;99669.51;;;-0.96;86.93
67987;BME280;54767;53.800;15.956;2023-02-26T00:36:12;99674.80;;;-0.97;86.69
67987;BME280;54767;53.800;15.956;2023-02-26T00:38:51;99680.59;;;-0.98;86.44
67987;BME280;54767;53.800;15.956;2023-02-26T00:41:28;99681.22;;;-1.00;86.36
67987;BME280;54767;53.800;15.956;2023-02-26T00:44:01;99683.05;;;-1.02;86.47
67987;BME280;54767;53.800;15.956;2023-02-26T00:50:23;99683.73;;;-1.02;86.36
67987;BME280;54767;53.800;15.956;2023-02-26T00:53:27;99684.01;;;-1.03;85.96
67987;BME280;54767;53.800;15.956;2023-02-26T00:55:57;99690.59;;;-1.02;85.92
67987;BME280;54767;53.800;15.956;2023-02-26T00:58:28;99687.29;;;-1.03;85.87
67987;BME280;54767;53.800;15.956;2023-02-26T01:01:01;99695.12;;;-1.00;85.93
67987;BME280;54767;53.800;15.956;2023-02-26T01:03:31;99700.70;;;-0.98;85.47
67987;BME280;54767;53.800;15.956;2023-02-26T01:06:00;99701.13;;;-0.96;85.37
67987;BME280;54767;53.800;15.956;2023-02-26T01:08:39;99703.58;;;-0.95;84.99
67987;BME280;54767;53.800;15.956;2023-02-26T01:11:10;99718.02;;;-0.95;85.09
67987;BME280;54767;53.800;15.956;2023-02-26T01:13:38;99734.23;;;-0.97;86.09
67987;BME280;54767;53.800;15.956;2023-02-26T01:16:11;99733.80;;;-1.03;87.67
67987;BME280;54767;53.800;15.956;2023-02-26T01:18:45;99736.56;;;-1.07;87.94
67987;BME280;54767;53.800;15.956;2023-02-26T01:21:25;99735.61;;;-1.09;88.25
67987;BME280;54767;53.800;15.956;2023-02-26T01:23:55;99735.84;;;-1.12;88.58
67987;BME280;54767;53.800;15.956;2023-02-26T01:26:27;99736.66;;;-1.13;88.04
67987;BME280;54767;53.800;15.956;2023-02-26T01:28:56;99735.17;;;-1.12;88.07
67987;BME280;54767;53.800;15.956;2023-02-26T01:35:10;99748.75;;;-1.11;87.59
67987;BME280;54767;53.800;15.956;2023-02-26T01:37:52;99747.31;;;-1.09;87.38
67987;BME280;54767;53.800;15.956;2023-02-26T01:40:34;99752.53;;;-1.07;87.20
67987;BME280;54767;53.800;15.956;2023-02-26T01:43:09;99756.14;;;-1.07;87.61
67987;BME280;54767;53.800;15.956;2023-02-26T01:45:51;99759.14;;;-1.09;87.70
67987;BME280;54767;53.800;15.956;2023-02-26T01:48:36;99765.83;;;-1.14;87.71
67987;BME280;54767;53.800;15.956;2023-02-26T01:51:05;99771.23;;;-1.16;87.79
67987;BME280;54767;53.800;15.956;2023-02-26T01:53:33;99779.04;;;-1.19;87.94
67987;BME280;54767;53.800;15.956;2023-02-26T01:56:08;99784.40;;;-1.21;88.09
67987;BME280;54767;53.800;15.956;2023-02-26T01:58:38;99786.89;;;-1.24;88.09
67987;BME280;54767;53.800;15.956;2023-02-26T02:01:07;99787.54;;;-1.25;88.31
67987;BME280;54767;53.800;15.956;2023-02-26T02:03:37;99783.34;;;-1.26;88.20
67987;BME280;54767;53.800;15.956;2023-02-26T02:06:09;99781.13;;;-1.26;88.53
67987;BME280;54767;53.800;15.956;2023-02-26T02:08:42;99786.81;;;-1.25;88.43
67987;BME280;54767;53.800;15.956;2023-02-26T02:11:11;99785.08;;;-1.26;88.42
67987;BME280;54767;53.800;15.956;2023-02-26T02:19:23;99786.48;;;-1.17;88.19
67987;BME280;54767;53.800;15.956;2023-02-26T02:27:46;99800.85;;;-1.10;87.81
67987;BME280;54767;53.800;15.956;2023-02-26T02:30:34;99797.17;;;-1.07;87.87
67987;BME280;54767;53.800;15.956;2023-02-26T02:33:12;99796.84;;;-1.03;88.06
67987;BME280;54767;53.800;15.956;2023-02-26T02:35:53;99800.03;;;-1.01;87.84
67987;BME280;54767;53.800;15.956;2023-02-26T02:38:41;99815.98;;;-0.97;88.02
67987;BME280;54767;53.800;15.956;2023-02-26T02:41:23;99825.98;;;-0.96;87.85
67987;BME280;54767;53.800;15.956;2023-02-26T02:43:54;99817.66;;;-0.98;87.82
67987;BME280;54767;53.800;15.956;2023-02-26T02:46:27;99827.94;;;-0.99;87.76
67987;BME280;54767;53.800;15.956;2023-02-26T02:49:01;99834.86;;;-0.97;87.49
67987;BME280;54767;53.800;15.956;2023-02-26T02:51:40;99832.66;;;-0.96;87.54
67987;BME280;54767;53.800;15.956;2023-02-26T02:54:14;99838.22;;;-0.95;87.46
67987;BME280;54767;53.800;15.956;2023-02-26T02:56:54;99843.06;;;-0.94;87.26
67987;BME280;54767;53.800;15.956;2023-02-26T02:59:38;99851.86;;;-0.93;87.66
67987;BME280;54767;53.800;15.956;2023-02-26T03:02:13;99863.42;;;-0.92;88.11
67987;BME280;54767;53.800;15.956;2023-02-26T03:04:44;99867.83;;;-0.93;88.41
67987;BME280;54767;53.800;15.956;2023-02-26T03:07:13;99870.00;;;-0.95;88.53
67987;BME280;54767;53.800;15.956;2023-02-26T03:09:41;99875.84;;;-0.95;88.33
67987;BME280;54767;53.800;15.956;2023-02-26T03:12:10;99877.89;;;-0.95;88.12
67987;BME280;54767;53.800;15.956;2023-02-26T03:14:39;99876.72;;;-0.95;87.80
67987;BME280;54767;53.800;15.956;2023-02-26T03:17:30;99883.86;;;-0.93;87.50
67987;BME280;54767;53.800;15.956;2023-02-26T03:23:59;99892.27;;;-0.92;87.39
67987;BME280;54767;53.800;15.956;2023-02-26T03:26:00;99899.35;;;-0.95;87.16
67987;BME280;54767;53.800;15.956;2023-02-26T03:28:56;99906.12;;;-0.98;87.16
67987;BME280;54767;53.800;15.956;2023-02-26T03:31:34;99914.39;;;-0.97;87.19
67987;BME280;54767;53.800;15.956;2023-02-26T03:34:14;99914.73;;;-0.98;87.26
67987;BME280;54767;53.800;15.956;2023-02-26T03:37:14;99920.23;;;-0.97;86.82
67987;BME280;54767;53.800;15.956;2023-02-26T03:39:48;99921.35;;;-0.99;86.58
67987;BME280;54767;53.800;15.956;2023-02-26T03:44:54;99930.91;;;-1.01;86.70
67987;BME280;54767;53.800;15.956;2023-02-26T03:47:24;99932.65;;;-1.00;86.60
67987;BME280;54767;53.800;15.956;2023-02-26T03:49:58;99936.48;;;-0.99;86.30
67987;BME280;54767;53.800;15.956;2023-02-26T03:52:31;99938.46;;;-0.97;86.16
67987;BME280;54767;53.800;15.956;2023-02-26T03:55:25;99945.85;;;-0.93;85.97
67987;BME280;54767;53.800;15.956;2023-02-26T03:57:57;99945.21;;;-0.91;85.44
67987;BME280;54767;53.800;15.956;2023-02-26T04:00:26;99948.89;;;-0.89;85.48
67987;BME280;54767;53.800;15.956;2023-02-26T04:03:00;99952.70;;;-0.89;85.42
67987;BME280;54767;53.800;15.956;2023-02-26T04:05:37;99953.23;;;-0.89;85.13
67987;BME280;54767;53.800;15.956;2023-02-26T04:08:07;99953.42;;;-0.88;84.95
67987;BME280;54767;53.800;15.956;2023-02-26T04:10:41;99956.77;;;-0.86;84.73
67987;BME280;54767;53.800;15.956;2023-02-26T04:13:10;99957.52;;;-0.84;84.55
67987;BME280;54767;53.800;15.956;2023-02-26T04:15:38;99958.63;;;-0.83;84.58
67987;BME280;54767;53.800;15.956;2023-02-26T04:18:06;99968.63;;;-0.82;84.20
67987;BME280;54767;53.800;15.956;2023-02-26T04:20:35;99970.86;;;-0.82;84.21
67987;BME280;54767;53.800;15.956;2023-02-26T04:23:04;99971.48;;;-0.83;84.52
67987;BME280;54767;53.800;15.956;2023-02-26T04:25:32;99975.56;;;-0.85;84.25
67987;BME280;54767;53.800;15.956;2023-02-26T04:28:00;99974.37;;;-0.84;84.14
67987;BME280;54767;53.800;15.956;2023-02-26T04:30:28;99975.80;;;-0.83;84.01
67987;BME280;54767;53.800;15.956;2023-02-26T04:32:57;99983.59;;;-0.82;83.93
67987;BME280;54767;53.800;15.956;2023-02-26T04:35:25;99987.02;;;-0.82;83.45
67987;BME280;54767;53.800;15.956;2023-02-26T04:37:53;99984.77;;;-0.82;83.09
67987;BME280;54767;53.800;15.956;2023-02-26T04:40:21;99988.84;;;-0.83;83.13
67987;BME280;54767;53.800;15.956;2023-02-26T04:42:52;99993.12;;;-0.88;83.12
67987;BME280;54767;53.800;15.956;2023-02-26T04:45:20;99993.00;;;-0.91;82.54
67987;BME280;54767;53.800;15.956;2023-02-26T04:47:48;99994.57;;;-0.94;82.69
67987;BME280;54767;53.800;15.956;2023-02-26T04:50:16;99997.09;;;-0.95;82.64
67987;BME280;54767;53.800;15.956;2023-02-26T04:52:45;99997.87;;;-0.97;82.81
67987;BME280;54767;53.800;15.956;2023-02-26T04:55:13;99999.59;;;-0.97;82.87
67987;BME280;54767;53.800;15.956;2023-02-26T04:57:41;100005.20;;;-0.99;82.89
67987;BME280;54767;53.800;15.956;2023-02-26T05:00:10;100005.96;;;-1.00;82.79
67987;BME280;54767;53.800;15.956;2023-02-26T05:02:38;100006.77;;;-1.02;82.44
67987;BME280;54767;53.800;15.956;2023-02-26T05:05:07;100008.25;;;-1.03;82.28
67987;BME280;54767;53.800;15.956;2023-02-26T05:07:35;100012.73;;;-1.02;82.33
67987;BME280;54767;53.800;15.956;2023-02-26T05:10:07;100014.64;;;-1.02;82.26
67987;BME280;54767;53.800;15.956;2023-02-26T05:12:35;100018.60;;;-1.02;82.29
67987;BME280;54767;53.800;15.956;2023-02-26T05:15:05;100020.48;;;-1.02;82.43
67987;BME280;54767;53.800;15.956;2023-02-26T05:17:34;100024.76;;;-1.02;82.44
67987;BME280;54767;53.800;15.956;2023-02-26T05:20:03;100027.53;;;-1.02;82.42
67987;BME280;54767;53.800;15.956;2023-02-26T05:22:32;100034.99;;;-1.01;82.27
67987;BME280;54767;53.800;15.956;2023-02-26T05:25:00;100040.75;;;-0.98;82.17
67987;BME280;54767;53.800;15.956;2023-02-26T05:27:28;100043.63;;;-0.95;82.01
67987;BME280;54767;53.800;15.956;2023-02-26T05:29:56;100049.12;;;-0.92;82.09
67987;BME280;54767;53.800;15.956;2023-02-26T05:32:24;100054.31;;;-0.91;82.07
67987;BME280;54767;53.800;15.956;2023-02-26T05:34:53;100054.65;;;-0.91;82.05
67987;BME280;54767;53.800;15.956;2023-02-26T05:37:21;100060.31;;;-0.91;81.57
67987;BME280;54767;53.800;15.956;2023-02-26T05:39:49;100066.01;;;-0.91;81.62
67987;BME280;54767;53.800;15.956;2023-02-26T05:42:17;100068.26;;;-0.90;81.77
67987;BME280;54767;53.800;15.956;2023-02-26T05:44:45;100077.09;;;-0.88;81.28
67987;BME280;54767;53.800;15.956;2023-02-26T05:47:13;100081.23;;;-0.88;81.34
67987;BME280;54767;53.800;15.956;2023-02-26T05:49:41;100087.93;;;-0.88;81.04
67987;BME280;54767;53.800;15.956;2023-02-26T05:52:10;100092.23;;;-0.88;81.12
67987;BME280;54767;53.800;15.956;2023-02-26T05:54:38;100095.88;;;-0.91;81.07
67987;BME280;54767;53.800;15.956;2023-02-26T05:57:06;100100.35;;;-0.95;80.97
67987;BME280;54767;53.800;15.956;2023-02-26T05:59:34;100108.04;;;-0.96;80.77
67987;BME280;54767;53.800;15.956;2023-02-26T06:02:02;100111.73;;;-0.98;80.96
67987;BME280;54767;53.800;15.956;2023-02-26T06:04:31;100119.45;;;-0.98;80.87
67987;BME280;54767;53.800;15.956;2023-02-26T06:06:59;100124.82;;;-0.97;81.15
67987;BME280;54767;53.800;15.956;2023-02-26T06:09:27;100130.30;;;-0.97;81.06
67987;BME280;54767;53.800;15.956;2023-02-26T06:11:55;100131.98;;;-0.98;81.10
67987;BME280;54767;53.800;15.956;2023-02-26T06:14:24;100132.33;;;-1.01;81.00
67987;BME280;54767;53.800;15.956;2023-02-26T06:16:52;100140.98;;;-1.03;80.99
67987;BME280;54767;53.800;15.956;2023-02-26T06:19:20;100141.17;;;-1.07;80.90
67987;BME280;54767;53.800;15.956;2023-02-26T06:21:48;100139.67;;;-1.10;80.72
67987;BME280;54767;53.800;15.956;2023-02-26T06:24:16;100149.61;;;-1.10;80.96
67987;BME280;54767;53.800;15.956;2023-02-26T06:26:45;100149.72;;;-1.11;80.52
67987;BME280;54767;53.800;15.956;2023-02-26T06:29:13;100159.38;;;-1.14;80.50
67987;BME280;54767;53.800;15.956;2023-02-26T06:31:41;100163.73;;;-1.20;80.38
67987;BME280;54767;53.800;15.956;2023-02-26T06:34:10;100165.27;;;-1.27;80.48
67987;BME280;54767;53.800;15.956;2023-02-26T06:36:38;100175.48;;;-1.33;80.54
67987;BME280;54767;53.800;15.956;2023-02-26T06:39:06;100172.91;;;-1.36;80.61
67987;BME280;54767;53.800;15.956;2023-02-26T06:41:34;100176.10;;;-1.39;81.01
67987;BME280;54767;53.800;15.956;2023-02-26T06:44:03;100175.84;;;-1.40;81.03
67987;BME280;54767;53.800;15.956;2023-02-26T06:46:32;100187.64;;;-1.37;81.71
67987;BME280;54767;53.800;15.956;2023-02-26T06:49:00;100193.65;;;-1.34;82.36
67987;BME280;54767;53.800;15.956;2023-02-26T06:51:29;100197.59;;;-1.27;83.05
67987;BME280;54767;53.800;15.956;2023-02-26T06:53:57;100207.07;;;-1.15;83.83
67987;BME280;54767;53.800;15.956;2023-02-26T06:56:26;100209.13;;;-1.05;84.47
67987;BME280;54767;53.800;15.956;2023-02-26T06:58:55;100213.98;;;-0.96;84.71
67987;BME280;54767;53.800;15.956;2023-02-26T07:01:23;100218.55;;;-0.91;84.94
67987;BME280;54767;53.800;15.956;2023-02-26T07:03:51;100219.19;;;-0.88;84.89
67987;BME280;54767;53.800;15.956;2023-02-26T07:06:20;100223.61;;;-0.85;84.58
67987;BME280;54767;53.800;15.956;2023-02-26T07:08:55;100222.22;;;-0.82;84.54
67987;BME280;54767;53.800;15.956;2023-02-26T07:11:23;100226.75;;;-0.81;84.70
67987;BME280;54767;53.800;15.956;2023-02-26T07:13:52;100234.02;;;-0.80;84.63
67987;BME280;54767;53.800;15.956;2023-02-26T07:16:20;100245.30;;;-0.77;84.97
67987;BME280;54767;53.800;15.956;2023-02-26T07:18:48;100256.17;;;-0.73;84.88
67987;BME280;54767;53.800;15.956;2023-02-26T07:21:16;100252.14;;;-0.70;85.16
67987;BME280;54767;53.800;15.956;2023-02-26T07:23:45;100256.42;;;-0.67;85.35
67987;BME280;54767;53.800;15.956;2023-02-26T07:26:13;100264.52;;;-0.63;85.05
67987;BME280;54767;53.800;15.956;2023-02-26T07:28:41;100263.88;;;-0.58;84.89
67987;BME280;54767;53.800;15.956;2023-02-26T07:31:09;100268.46;;;-0.56;84.93
67987;BME280;54767;53.800;15.956;2023-02-26T07:33:38;100269.48;;;-0.56;84.68
67987;BME280;54767;53.800;15.956;2023-02-26T07:36:06;100270.91;;;-0.59;84.70
67987;BME280;54767;53.800;15.956;2023-02-26T07:38:34;100275.86;;;-0.60;84.66
67987;BME280;54767;53.800;15.956;2023-02-26T07:41:02;100282.92;;;-0.59;84.56
67987;BME280;54767;53.800;15.956;2023-02-26T07:43:31;100286.54;;;-0.56;84.44
67987;BME280;54767;53.800;15.956;2023-02-26T07:45:59;100290.96;;;-0.53;84.10
67987;BME280;54767;53.800;15.956;2023-02-26T07:48:27;100294.39;;;-0.49;83.72
67987;BME280;54767;53.800;15.956;2023-02-26T07:50:55;100299.38;;;-0.45;83.54
67987;BME280;54767;53.800;15.956;2023-02-26T07:53:23;100298.01;;;-0.42;83.34
67987;BME280;54767;53.800;15.956;2023-02-26T07:55:52;100298.13;;;-0.39;83.47
67987;BME280;54767;53.800;15.956;2023-02-26T07:58:20;100301.63;;;-0.38;82.91
67987;BME280;54767;53.800;15.956;2023-02-26T08:00:48;100304.58;;;-0.37;82.96
67987;BME280;54767;53.800;15.956;2023-02-26T08:03:16;100310.45;;;-0.37;82.49
67987;BME280;54767;53.800;15.956;2023-02-26T08:05:44;100312.54;;;-0.36;82.46
67987;BME280;54767;53.800;15.956;2023-02-26T08:08:12;100315.56;;;-0.34;82.21
67987;BME280;54767;53.800;15.956;2023-02-26T08:10:41;100316.02;;;-0.32;81.44
67987;BME280;54767;53.800;15.956;2023-02-26T08:13:09;100320.91;;;-0.30;81.18
67987;BME280;54767;53.800;15.956;2023-02-26T08:15:37;100327.48;;;-0.29;81.03
67987;BME280;54767;53.800;15.956;2023-02-26T08:18:06;100331.45;;;-0.29;80.61
67987;BME280;54767;53.800;15.956;2023-02-26T08:20:34;100333.67;;;-0.30;80.91
67987;BME280;54767;53.800;15.956;2023-02-26T08:23:02;100337.27;;;-0.30;80.27
67987;BME280;54767;53.800;15.956;2023-02-26T08:25:30;100343.02;;;-0.28;79.97
67987;BME280;54767;53.800;15.956;2023-02-26T08:27:58;100351.92;;;-0.25;79.67
67987;BME280;54767;53.800;15.956;2023-02-26T08:30:28;100356.51;;;-0.23;79.29
67987;BME280;54767;53.800;15.956;2023-02-26T08:32:57;100363.62;;;-0.21;79.35
67987;BME280;54767;53.800;15.956;2023-02-26T08:35:25;100365.56;;;-0.20;78.67
67987;BME280;54767;53.800;15.956;2023-02-26T08:37:53;100372.15;;;-0.19;79.18
67987;BME280;54767;53.800;15.956;2023-02-26T08:40:21;100377.53;;;-0.18;78.80
67987;BME280;54767;53.800;15.956;2023-02-26T08:42:49;100380.73;;;-0.16;78.76
67987;BME280;54767;53.800;15.956;2023-02-26T08:45:18;100382.34;;;-0.11;78.86
67987;BME280;54767;53.800;15.956;2023-02-26T08:47:46;100382.39;;;-0.07;78.64
67987;BME280;54767;53.800;15.956;2023-02-26T08:50:24;100386.45;;;-0.05;78.16
67987;BME280;54767;53.800;15.956;2023-02-26T08:52:53;100391.27;;;-0.04;78.55
67987;BME280;54767;53.800;15.956;2023-02-26T08:55:22;100396.23;;;-0.05;78.80
67987;BME280;54767;53.800;15.956;2023-02-26T08:57:50;100401.44;;;-0.03;78.63
67987;BME280;54767;53.800;15.956;2023-02-26T09:00:18;100403.96;;;-0.01;79.21
67987;BME280;54767;53.800;15.956;2023-02-26T09:02:47;100410.96;;;0.01;78.63
67987;BME280;54767;53.800;15.956;2023-02-26T09:05:16;100416.39;;;0.03;78.39
67987;BME280;54767;53.800;15.956;2023-02-26T09:07:44;100420.58;;;0.05;78.14
67987;BME280;54767;53.800;15.956;2023-02-26T09:10:13;100426.82;;;0.06;78.54
67987;BME280;54767;53.800;15.956;2023-02-26T09:12:42;100433.19;;;0.06;78.46
67987;BME280;54767;53.800;15.956;2023-02-26T09:15:11;100438.11;;;0.04;78.32
67987;BME280;54767;53.800;15.956;2023-02-26T09:17:41;100442.17;;;0.03;78.33
67987;BME280;54767;53.800;15.956;2023-02-26T09:20:10;100447.00;;;0.03;78.27
67987;BME280;54767;53.800;15.956;2023-02-26T09:22:39;100451.77;;;0.06;78.77
67987;BME280;54767;53.800;15.956;2023-02-26T09:25:07;100459.63;;;0.08;78.07
67987;BME280;54767;53.800;15.956;2023-02-26T09:27:35;100460.46;;;0.08;78.52
67987;BME280;54767;53.800;15.956;2023-02-26T09:30:05;100464.98;;;0.08;78.26
67987;BME280;54767;53.800;15.956;2023-02-26T09:32:33;100468.35;;;0.11;78.57
67987;BME280;54767;53.800;15.956;2023-02-26T09:35:03;100472.06;;;0.13;78.17
67987;BME280;54767;53.800;15.956;2023-02-26T09:37:32;100479.61;;;0.16;77.70
67987;BME280;54767;53.800;15.956;2023-02-26T09:40:00;100483.86;;;0.18;77.58
67987;BME280;54767;53.800;15.956;2023-02-26T09:42:52;100491.40;;;0.21;77.28
67987;BME280;54767;53.800;15.956;2023-02-26T09:45:37;100499.81;;;0.25;76.83
67987;BME280;54767;53.800;15.956;2023-02-26T09:48:14;100502.97;;;0.26;77.12
67987;BME280;54767;53.800;15.956;2023-02-26T09:50:52;100509.82;;;0.29;77.07
67987;BME280;54767;53.800;15.956;2023-02-26T09:53:28;100513.48;;;0.33;77.28
67987;BME280;54767;53.800;15.956;2023-02-26T09:56:05;100514.61;;;0.39;77.76
67987;BME280;54767;53.800;15.956;2023-02-26T09:58:39;100516.83;;;0.45;77.48
67987;BME280;54767;53.800;15.956;2023-02-26T10:17:29;100544.63;;;0.51;75.25
67987;BME280;54767;53.800;15.956;2023-02-26T10:20:24;100548.93;;;0.47;75.48
67987;BME280;54767;53.800;15.956;2023-02-26T10:23:03;100553.33;;;0.46;75.47
67987;BME280;54767;53.800;15.956;2023-02-26T10:26:03;100555.89;;;0.45;75.60
67987;BME280;54767;53.800;15.956;2023-02-26T10:31:36;100561.80;;;0.57;75.75
67987;BME280;54767;53.800;15.956;2023-02-26T10:34:20;100565.86;;;0.63;75.54
67987;BME280;54767;53.800;15.956;2023-02-26T10:39:59;100573.34;;;0.64;75.11
67987;BME280;54767;53.800;15.956;2023-02-26T10:42:46;100577.30;;;0.68;75.48
67987;BME280;54767;53.800;15.956;2023-02-26T10:50:48;100588.95;;;0.74;73.94
67987;BME280;54767;53.800;15.956;2023-02-26T10:53:17;100590.89;;;0.72;73.97
67987;BME280;54767;53.800;15.956;2023-02-26T10:55:54;100592.87;;;0.77;74.87
67987;BME280;54767;53.800;15.956;2023-02-26T10:58:26;100597.04;;;0.78;73.60
67987;BME280;54767;53.800;15.956;2023-02-26T11:00:56;100601.13;;;0.74;72.58
67987;BME280;54767;53.800;15.956;2023-02-26T11:03:38;100597.60;;;0.64;71.83
67987;BME280;54767;53.800;15.956;2023-02-26T11:06:07;100598.38;;;0.58;72.81
67987;BME280;54767;53.800;15.956;2023-02-26T11:08:45;100598.81;;;0.57;72.43
67987;BME280;54767;53.800;15.956;2023-02-26T11:14:08;100603.77;;;0.53;73.50
67987;BME280;54767;53.800;15.956;2023-02-26T11:16:53;100604.53;;;0.54;73.35
67987;BME280;54767;53.800;15.956;2023-02-26T11:19:37;100606.36;;;0.56;72.88
67987;BME280;54767;53.800;15.956;2023-02-26T11:22:07;100610.25;;;0.59;72.98
67987;BME280;54767;53.800;15.956;2023-02-26T11:24:44;100611.23;;;0.61;73.07
67987;BME280;54767;53.800;15.956;2023-02-26T11:27:35;100618.83;;;0.65;72.99
67987;BME280;54767;53.800;15.956;2023-02-26T11:30:14;100622.91;;;0.67;72.92
67987;BME280;54767;53.800;15.956;2023-02-26T11:32:50;100623.08;;;0.67;72.08
67987;BME280;54767;53.800;15.956;2023-02-26T11:35:22;100627.96;;;0.65;71.22
67987;BME280;54767;53.800;15.956;2023-02-26T11:37:54;100625.05;;;0.65;71.33
67987;BME280;54767;53.800;15.956;2023-02-26T11:40:47;100630.05;;;0.69;71.31
67987;BME280;54767;53.800;15.956;2023-02-26T11:43:19;100632.72;;;0.75;71.52
67987;BME280;54767;53.800;15.956;2023-02-26T11:45:54;100634.16;;;0.79;71.13
67987;BME280;54767;53.800;15.956;2023-02-26T11:48:38;100636.15;;;0.81;70.39
67987;BME280;54767;53.800;15.956;2023-02-26T11:51:11;100636.83;;;0.81;70.79
67987;BME280;54767;53.800;15.956;2023-02-26T11:53:53;100636.89;;;0.76;70.00
67987;BME280;54767;53.800;15.956;2023-02-26T11:56:41;100639.95;;;0.71;70.06
67987;BME280;54767;53.800;15.956;2023-02-26T11:59:18;100639.41;;;0.70;70.55
67987;BME280;54767;53.800;15.956;2023-02-26T12:01:48;100640.70;;;0.72;70.62
67987;BME280;54767;53.800;15.956;2023-02-26T12:04:19;100643.14;;;0.73;70.77
67987;BME280;54767;53.800;15.956;2023-02-26T12:06:53;100648.86;;;0.74;70.79
67987;BME280;54767;53.800;15.956;2023-02-26T12:09:24;100649.69;;;0.76;70.53
67987;BME280;54767;53.800;15.956;2023-02-26T12:24:47;100667.27;;;0.83;68.50
67987;BME280;54767;53.800;15.956;2023-02-26T12:30:29;100674.61;;;0.72;68.41
67987;BME280;54767;53.800;15.956;2023-02-26T12:35:58;100677.04;;;0.76;68.27
67987;BME280;54767;53.800;15.956;2023-02-26T12:39:04;100672.34;;;0.78;67.57
67987;BME280;54767;53.800;15.956;2023-02-26T12:47:15;100680.76;;;0.78;65.11
67987;BME280;54767;53.800;15.956;2023-02-26T12:50:02;100686.49;;;0.78;64.23
67987;BME280;54767;53.800;15.956;2023-02-26T12:52:46;100684.84;;;0.80;64.47
67987;BME280;54767;53.800;15.956;2023-02-26T12:58:15;100694.86;;;0.80;65.79
67987;BME280;54767;53.800;15.956;2023-02-26T13:06:42;100703.40;;;0.82;68.20
67987;BME280;54767;53.800;15.956;2023-02-26T13:22:17;100720.34;;;0.73;69.80
67987;BME280;54767;53.800;15.956;2023-02-26T13:24:53;100719.40;;;0.68;69.67
67987;BME280;54767;53.800;15.956;2023-02-26T13:27:32;100720.94;;;0.64;69.87
67987;BME280;54767;53.800;15.956;2023-02-26T13:32:52;100726.27;;;0.61;70.29
67987;BME280;54767;53.800;15.956;2023-02-26T13:35:28;100732.84;;;0.61;70.32
67987;BME280;54767;53.800;15.956;2023-02-26T13:38:03;100731.39;;;0.60;70.18
67987;BME280;54767;53.800;15.956;2023-02-26T13:40:46;100730.88;;;0.56;70.47
67987;BME280;54767;53.800;15.956;2023-02-26T13:43:31;100733.73;;;0.55;70.23
67987;BME280;54767;53.800;15.956;2023-02-26T13:49:18;100736.40;;;0.57;69.93
67987;BME280;54767;53.800;15.956;2023-02-26T13:51:52;100736.54;;;0.60;70.11
67987;BME280;54767;53.800;15.956;2023-02-26T14:04:51;100746.31;;;0.55;69.50
67987;BME280;54767;53.800;15.956;2023-02-26T14:07:52;100749.44;;;0.56;68.94
67987;BME280;54767;53.800;15.956;2023-02-26T14:13:38;100760.42;;;0.58;68.18
67987;BME280;54767;53.800;15.956;2023-02-26T14:16:25;100760.89;;;0.61;68.41
67987;BME280;54767;53.800;15.956;2023-02-26T14:22:19;100757.91;;;0.66;68.61
67987;BME280;54767;53.800;15.956;2023-02-26T14:27:42;100758.11;;;0.71;68.15
67987;BME280;54767;53.800;15.956;2023-02-26T14:32:48;100766.06;;;0.71;67.71
67987;BME280;54767;53.800;15.956;2023-02-26T14:35:23;100767.36;;;0.70;67.81
67987;BME280;54767;53.800;15.956;2023-02-26T14:38:00;100769.37;;;0.69;67.94
67987;BME280;54767;53.800;15.956;2023-02-26T14:40:39;100765.20;;;0.67;68.03
67987;BME280;54767;53.800;15.956;2023-02-26T14:43:48;100767.98;;;0.65;68.25
67987;BME280;54767;53.800;15.956;2023-02-26T14:46:09;100772.77;;;0.61;68.78
67987;BME280;54767;53.800;15.956;2023-02-26T14:48:38;100775.46;;;0.56;68.46
67987;BME280;54767;53.800;15.956;2023-02-26T14:51:22;100777.58;;;0.50;68.76
67987;BME280;54767;53.800;15.956;2023-02-26T14:56:59;100778.24;;;0.43;69.22
67987;BME280;54767;53.800;15.956;2023-02-26T15:07:55;100782.30;;;0.41;69.01
67987;BME280;54767;53.800;15.956;2023-02-26T15:21:56;100792.39;;;0.24;68.23
67987;BME280;54767;53.800;15.956;2023-02-26T15:24:29;100798.27;;;0.17;68.43
67987;BME280;54767;53.800;15.956;2023-02-26T15:27:00;100797.57;;;0.14;68.77
67987;BME280;54767;53.800;15.956;2023-02-26T15:29:33;100793.87;;;0.12;68.41
67987;BME280;54767;53.800;15.956;2023-02-26T15:32:25;100796.31;;;0.13;68.61
67987;BME280;54767;53.800;15.956;2023-02-26T15:35:06;100796.83;;;0.13;68.34
67987;BME280;54767;53.800;15.956;2023-02-26T15:37:34;100801.39;;;0.15;68.93
67987;BME280;54767;53.800;15.956;2023-02-26T15:40:04;100805.55;;;0.15;68.88
67987;BME280;54767;53.800;15.956;2023-02-26T15:42:37;100807.64;;;0.15;69.08
67987;BME280;54767;53.800;15.956;2023-02-26T15:48:00;100813.90;;;0.10;68.55
67987;BME280;54767;53.800;15.956;2023-02-26T15:50:34;100818.01;;;0.07;67.69
67987;BME280;54767;53.800;15.956;2023-02-26T15:53:04;100821.44;;;0.04;68.39
67987;BME280;54767;53.800;15.956;2023-02-26T15:55:36;100817.89;;;0.01;68.30